sensor_id;sensor_type;location;lat;lon;timestamp;pressure;altitude;pressure_sealevel;temperature;humidity
65760;BME280;52496;51.082;5.066;2023-05-03T00:01:49;102696.75;;;7.13;80.68
65760;BME280;52496;51.082;5.066;2023-05-03T00:04:19;102691.66;;;7.10;81.24
65760;BME280;52496;51.082;5.066;2023-05-03T00:06:52;102695.25;;;7.09;81.30
65760;BME280;52496;51.082;5.066;2023-05-03T00:09:23;102697.31;;;7.05;81.74
65760;BME280;52496;51.082;5.066;2023-05-03T00:11:53;102703.00;;;7.01;81.59
65760;BME280;52496;51.082;5.066;2023-05-03T00:14:24;102698.84;;;6.97;81.68
65760;BME280;52496;51.082;5.066;2023-05-03T00:16:54;102707.06;;;6.94;82.14
65760;BME280;52496;51.082;5.066;2023-05-03T00:19:25;102707.28;;;6.90;82.10
65760;BME280;52496;51.082;5.066;2023-05-03T00:22:00;102704.88;;;6.87;82.49
65760;BME280;52496;51.082;5.066;2023-05-03T00:24:30;102705.84;;;6.86;82.57
65760;BME280;52496;51.082;5.066;2023-05-03T00:27:02;102708.63;;;6.85;83.31
65760;BME280;52496;51.082;5.066;2023-05-03T00:29:33;102709.69;;;6.82;82.91
65760;BME280;52496;51.082;5.066;2023-05-03T00:32:03;102706.28;;;6.80;82.88
65760;BME280;52496;51.082;5.066;2023-05-03T00:34:34;102700.97;;;6.80;83.36
65760;BME280;52496;51.082;5.066;2023-05-03T00:37:05;102702.03;;;6.78;83.40
65760;BME280;52496;51.082;5.066;2023-05-03T00:39:35;102703.13;;;6.75;83.82
65760;BME280;52496;51.082;5.066;2023-05-03T00:42:06;102699.75;;;6.73;84.44
65760;BME280;52496;51.082;5.066;2023-05-03T00:44:36;102703.56;;;6.69;84.46
65760;BME280;52496;51.082;5.066;2023-05-03T00:47:07;102701.13;;;6.66;84.12
65760;BME280;52496;51.082;5.066;2023-05-03T00:49:38;102702.09;;;6.65;84.71
65760;BME280;52496;51.082;5.066;2023-05-03T00:52:09;102697.88;;;6.62;84.54
65760;BME280;52496;51.082;5.066;2023-05-03T00:54:40;102698.00;;;6.61;84.83
65760;BME280;52496;51.082;5.066;2023-05-03T00:57:11;102697.25;;;6.59;85.37
65760;BME280;52496;51.082;5.066;2023-05-03T00:59:41;102688.66;;;6.55;85.32
65760;BME280;52496;51.082;5.066;2023-05-03T01:02:13;102688.75;;;6.54;85.52
65760;BME280;52496;51.082;5.066;2023-05-03T01:04:43;102676.44;;;6.53;85.86
65760;BME280;52496;51.082;5.066;2023-05-03T01:10:58;102667.09;;;6.47;86.24
65760;BME280;52496;51.082;5.066;2023-05-03T01:13:40;102671.78;;;6.43;86.21
65760;BME280;52496;51.082;5.066;2023-05-03T01:16:55;102666.69;;;6.40;86.30
65760;BME280;52496;51.082;5.066;2023-05-03T01:19:30;102668.63;;;6.38;86.72
65760;BME280;52496;51.082;5.066;2023-05-03T01:22:25;102670.44;;;6.38;87.03
65760;BME280;52496;51.082;5.066;2023-05-03T01:25:08;102671.50;;;6.35;87.43
65760;BME280;52496;51.082;5.066;2023-05-03T01:27:40;102682.25;;;6.34;86.98
65760;BME280;52496;51.082;5.066;2023-05-03T01:30:12;102685.13;;;6.31;87.37
65760;BME280;52496;51.082;5.066;2023-05-03T01:32:54;102690.53;;;6.29;87.53
65760;BME280;52496;51.082;5.066;2023-05-03T01:38:02;102699.72;;;6.25;88.07
65760;BME280;52496;51.082;5.066;2023-05-03T01:40:41;102696.31;;;6.23;88.31
65760;BME280;52496;51.082;5.066;2023-05-03T01:43:15;102708.88;;;6.21;88.53
65760;BME280;52496;51.082;5.066;2023-05-03T01:45:46;102705.47;;;6.19;88.79
65760;BME280;52496;51.082;5.066;2023-05-03T01:48:18;102704.72;;;6.17;89.05
65760;BME280;52496;51.082;5.066;2023-05-03T01:50:48;102700.59;;;6.13;89.13
65760;BME280;52496;51.082;5.066;2023-05-03T01:53:19;102697.19;;;6.11;88.87
65760;BME280;52496;51.082;5.066;2023-05-03T01:55:49;102702.72;;;6.08;89.78
65760;BME280;52496;51.082;5.066;2023-05-03T01:58:20;102694.88;;;6.06;89.72
65760;BME280;52496;51.082;5.066;2023-05-03T02:00:50;102698.59;;;6.04;89.89
65760;BME280;52496;51.082;5.066;2023-05-03T02:03:20;102697.84;;;6.02;90.08
65760;BME280;52496;51.082;5.066;2023-05-03T02:05:51;102697.22;;;5.98;90.33
65760;BME280;52496;51.082;5.066;2023-05-03T02:08:22;102693.94;;;5.94;90.88
65760;BME280;52496;51.082;5.066;2023-05-03T02:10:53;102693.16;;;5.92;90.62
65760;BME280;52496;51.082;5.066;2023-05-03T02:13:24;102686.25;;;5.90;90.80
65760;BME280;52496;51.082;5.066;2023-05-03T02:15:54;102698.03;;;5.86;91.55
65760;BME280;52496;51.082;5.066;2023-05-03T02:18:24;102686.78;;;5.82;91.84
65760;BME280;52496;51.082;5.066;2023-05-03T02:20:56;102690.38;;;5.81;92.03
65760;BME280;52496;51.082;5.066;2023-05-03T02:23:27;102683.50;;;5.79;91.91
65760;BME280;52496;51.082;5.066;2023-05-03T02:25:58;102680.19;;;5.75;92.71
65760;BME280;52496;51.082;5.066;2023-05-03T02:28:28;102687.31;;;5.74;92.18
65760;BME280;52496;51.082;5.066;2023-05-03T02:30:59;102676.81;;;5.73;92.58
65760;BME280;52496;51.082;5.066;2023-05-03T02:33:29;102672.66;;;5.69;93.27
65760;BME280;52496;51.082;5.066;2023-05-03T02:36:00;102661.34;;;5.67;93.30
65760;BME280;52496;51.082;5.066;2023-05-03T02:38:30;102656.25;;;5.64;93.52
65760;BME280;52496;51.082;5.066;2023-05-03T02:41:01;102650.28;;;5.60;93.60
65760;BME280;52496;51.082;5.066;2023-05-03T02:43:31;102651.34;;;5.58;94.09
65760;BME280;52496;51.082;5.066;2023-05-03T02:46:02;102646.47;;;5.51;94.29
65760;BME280;52496;51.082;5.066;2023-05-03T02:48:32;102647.63;;;5.47;94.61
65760;BME280;52496;51.082;5.066;2023-05-03T02:51:04;102646.28;;;5.42;95.07
65760;BME280;52496;51.082;5.066;2023-05-03T02:53:35;102648.19;;;5.40;95.34
65760;BME280;52496;51.082;5.066;2023-05-03T02:56:05;102644.88;;;5.36;96.10
65760;BME280;52496;51.082;5.066;2023-05-03T02:58:36;102642.53;;;5.32;96.24
65760;BME280;52496;51.082;5.066;2023-05-03T03:01:07;102650.63;;;5.30;96.61
65760;BME280;52496;51.082;5.066;2023-05-03T03:03:38;102654.31;;;5.27;96.64
65760;BME280;52496;51.082;5.066;2023-05-03T03:06:08;102659.94;;;5.23;97.36
65760;BME280;52496;51.082;5.066;2023-05-03T03:08:39;102656.56;;;5.21;96.96
65760;BME280;52496;51.082;5.066;2023-05-03T03:11:09;102654.41;;;5.13;97.66
65760;BME280;52496;51.082;5.066;2023-05-03T03:13:40;102653.78;;;5.10;98.13
65760;BME280;52496;51.082;5.066;2023-05-03T03:16:10;102658.31;;;5.07;98.28
65760;BME280;52496;51.082;5.066;2023-05-03T03:18:42;102662.16;;;5.03;98.67
65760;BME280;52496;51.082;5.066;2023-05-03T03:21:13;102658.75;;;5.01;98.40
65760;BME280;52496;51.082;5.066;2023-05-03T03:23:43;102657.34;;;4.96;99.53
65760;BME280;52496;51.082;5.066;2023-05-03T03:26:13;102652.38;;;4.91;99.92
65760;BME280;52496;51.082;5.066;2023-05-03T03:28:44;102650.88;;;4.87;99.77
65760;BME280;52496;51.082;5.066;2023-05-03T03:31:14;102647.69;;;4.82;100.00
65760;BME280;52496;51.082;5.066;2023-05-03T03:33:47;102648.75;;;4.79;100.00
65760;BME280;52496;51.082;5.066;2023-05-03T03:36:18;102637.50;;;4.76;100.00
65760;BME280;52496;51.082;5.066;2023-05-03T03:38:49;102640.44;;;4.71;100.00
65760;BME280;52496;51.082;5.066;2023-05-03T03:41:19;102641.53;;;4.69;100.00
65760;BME280;52496;51.082;5.066;2023-05-03T03:43:50;102639.78;;;4.68;100.00
65760;BME280;52496;51.082;5.066;2023-05-03T03:46:20;102647.88;;;4.66;100.00
65760;BME280;52496;51.082;5.066;2023-05-03T03:48:51;102650.59;;;4.65;100.00
65760;BME280;52496;51.082;5.066;2023-05-03T03:51:21;102648.91;;;4.64;100.00
65760;BME280;52496;51.082;5.066;2023-05-03T03:53:52;102658.75;;;4.62;100.00
65760;BME280;52496;51.082;5.066;2023-05-03T03:56:22;102657.06;;;4.60;100.00
65760;BME280;52496;51.082;5.066;2023-05-03T03:58:54;102666.69;;;4.62;100.00
65760;BME280;52496;51.082;5.066;2023-05-03T04:01:25;102660.56;;;4.61;100.00
65760;BME280;52496;51.082;5.066;2023-05-03T04:03:56;102666.91;;;4.58;100.00
65760;BME280;52496;51.082;5.066;2023-05-03T04:06:26;102671.38;;;4.58;100.00
65760;BME280;52496;51.082;5.066;2023-05-03T04:08:58;102673.94;;;4.59;100.00
65760;BME280;52496;51.082;5.066;2023-05-03T04:11:28;102671.38;;;4.58;100.00
65760;BME280;52496;51.082;5.066;2023-05-03T04:13:59;102665.09;;;4.59;100.00
65760;BME280;52496;51.082;5.066;2023-05-03T04:16:29;102672.13;;;4.60;100.00
65760;BME280;52496;51.082;5.066;2023-05-03T04:19:00;102680.06;;;4.60;100.00
65760;BME280;52496;51.082;5.066;2023-05-03T04:21:30;102672.19;;;4.58;100.00
65760;BME280;52496;51.082;5.066;2023-05-03T04:24:02;102673.16;;;4.57;100.00
65760;BME280;52496;51.082;5.066;2023-05-03T04:26:35;102675.81;;;4.57;100.00
65760;BME280;52496;51.082;5.066;2023-05-03T04:29:05;102685.47;;;4.58;100.00
65760;BME280;52496;51.082;5.066;2023-05-03T04:31:37;102683.56;;;4.60;100.00
65760;BME280;52496;51.082;5.066;2023-05-03T04:34:08;102689.63;;;4.63;100.00
65760;BME280;52496;51.082;5.066;2023-05-03T04:36:39;102705.31;;;4.66;100.00
65760;BME280;52496;51.082;5.066;2023-05-03T04:39:11;102699.06;;;4.67;100.00
65760;BME280;52496;51.082;5.066;2023-05-03T04:41:42;102701.50;;;4.70;100.00
65760;BME280;52496;51.082;5.066;2023-05-03T04:44:12;102703.97;;;4.73;100.00
65760;BME280;52496;51.082;5.066;2023-05-03T04:46:43;102702.81;;;4.77;100.00
65760;BME280;52496;51.082;5.066;2023-05-03T04:49:14;102711.41;;;4.80;100.00
65760;BME280;52496;51.082;5.066;2023-05-03T04:51:44;102710.34;;;4.83;100.00
65760;BME280;52496;51.082;5.066;2023-05-03T04:54:15;102715.38;;;4.88;100.00
65760;BME280;52496;51.082;5.066;2023-05-03T04:56:46;102719.63;;;4.90;100.00
65760;BME280;52496;51.082;5.066;2023-05-03T04:59:17;102728.94;;;4.96;100.00
65760;BME280;52496;51.082;5.066;2023-05-03T05:01:48;102721.66;;;4.99;100.00
65760;BME280;52496;51.082;5.066;2023-05-03T05:04:18;102734.50;;;5.05;100.00
65760;BME280;52496;51.082;5.066;2023-05-03T05:06:53;102733.34;;;5.10;100.00
65760;BME280;52496;51.082;5.066;2023-05-03T05:09:26;102731.97;;;5.17;100.00
65760;BME280;52496;51.082;5.066;2023-05-03T05:11:57;102735.19;;;5.22;100.00
65760;BME280;52496;51.082;5.066;2023-05-03T05:14:29;102735.59;;;5.28;100.00
65760;BME280;52496;51.082;5.066;2023-05-03T05:17:00;102737.97;;;5.33;100.00
65760;BME280;52496;51.082;5.066;2023-05-03T05:19:30;102736.78;;;5.37;100.00
65760;BME280;52496;51.082;5.066;2023-05-03T05:22:01;102738.28;;;5.41;100.00
65760;BME280;52496;51.082;5.066;2023-05-03T05:24:32;102731.81;;;5.45;100.00
65760;BME280;52496;51.082;5.066;2023-05-03T05:27:02;102735.75;;;5.52;100.00
65760;BME280;52496;51.082;5.066;2023-05-03T05:29:33;102726.41;;;5.60;100.00
65760;BME280;52496;51.082;5.066;2023-05-03T05:32:06;102726.94;;;5.65;100.00
65760;BME280;52496;51.082;5.066;2023-05-03T05:34:36;102726.50;;;5.71;100.00
65760;BME280;52496;51.082;5.066;2023-05-03T05:37:07;102731.19;;;5.80;100.00
65760;BME280;52496;51.082;5.066;2023-05-03T05:39:38;102733.31;;;5.88;100.00
65760;BME280;52496;51.082;5.066;2023-05-03T05:42:08;102723.16;;;5.94;100.00
65760;BME280;52496;51.082;5.066;2023-05-03T05:44:39;102724.19;;;6.05;100.00
65760;BME280;52496;51.082;5.066;2023-05-03T05:47:10;102723.53;;;6.14;100.00
65760;BME280;52496;51.082;5.066;2023-05-03T05:49:41;102727.34;;;6.23;100.00
65760;BME280;52496;51.082;5.066;2023-05-03T05:52:11;102727.66;;;6.31;99.57
65760;BME280;52496;51.082;5.066;2023-05-03T05:54:42;102730.47;;;6.40;99.85
65760;BME280;52496;51.082;5.066;2023-05-03T05:57:13;102732.25;;;6.53;99.34
65760;BME280;52496;51.082;5.066;2023-05-03T05:59:43;102731.47;;;6.63;98.50
65760;BME280;52496;51.082;5.066;2023-05-03T06:02:15;102730.59;;;6.76;97.74
65760;BME280;52496;51.082;5.066;2023-05-03T06:04:46;102740.31;;;6.88;97.26
65760;BME280;52496;51.082;5.066;2023-05-03T06:07:17;102735.16;;;6.98;96.50
65760;BME280;52496;51.082;5.066;2023-05-03T06:09:47;102730.81;;;7.08;95.45
65760;BME280;52496;51.082;5.066;2023-05-03T06:12:18;102724.81;;;7.17;94.54
65760;BME280;52496;51.082;5.066;2023-05-03T06:14:48;102727.53;;;7.28;94.11
65760;BME280;52496;51.082;5.066;2023-05-03T06:17:19;102733.81;;;7.39;93.71
65760;BME280;52496;51.082;5.066;2023-05-03T06:19:51;102730.34;;;7.49;92.38
65760;BME280;52496;51.082;5.066;2023-05-03T06:22:22;102724.91;;;7.62;91.34
65760;BME280;52496;51.082;5.066;2023-05-03T06:24:54;102728.56;;;7.72;91.07
65760;BME280;52496;51.082;5.066;2023-05-03T06:27:24;102725.81;;;7.85;89.98
65760;BME280;52496;51.082;5.066;2023-05-03T06:29:55;102724.09;;;7.95;89.96
65760;BME280;52496;51.082;5.066;2023-05-03T06:32:25;102719.63;;;8.07;89.82
65760;BME280;52496;51.082;5.066;2023-05-03T06:34:56;102720.94;;;8.24;89.66
65760;BME280;52496;51.082;5.066;2023-05-03T06:37:28;102727.81;;;8.38;88.48
65760;BME280;52496;51.082;5.066;2023-05-03T06:39:59;102724.19;;;8.50;85.48
65760;BME280;52496;51.082;5.066;2023-05-03T06:42:29;102716.53;;;8.57;85.53
65760;BME280;52496;51.082;5.066;2023-05-03T06:45:00;102711.19;;;8.68;85.06
65760;BME280;52496;51.082;5.066;2023-05-03T06:47:30;102707.50;;;8.80;83.25
65760;BME280;52496;51.082;5.066;2023-05-03T06:50:04;102718.25;;;8.90;84.55
65760;BME280;52496;51.082;5.066;2023-05-03T06:52:34;102720.75;;;9.03;83.16
65760;BME280;52496;51.082;5.066;2023-05-03T06:55:06;102709.44;;;9.10;81.93
65760;BME280;52496;51.082;5.066;2023-05-03T06:57:37;102709.34;;;9.22;81.61
65760;BME280;52496;51.082;5.066;2023-05-03T07:00:08;102713.13;;;9.40;83.58
65760;BME280;52496;51.082;5.066;2023-05-03T07:02:39;102706.72;;;9.52;79.10
65760;BME280;52496;51.082;5.066;2023-05-03T07:05:09;102706.13;;;9.70;80.84
65760;BME280;52496;51.082;5.066;2023-05-03T07:07:40;102705.25;;;9.90;79.52
65760;BME280;52496;51.082;5.066;2023-05-03T07:10:10;102697.44;;;10.08;77.88
65760;BME280;52496;51.082;5.066;2023-05-03T07:12:41;102701.03;;;10.28;79.65
65760;BME280;52496;51.082;5.066;2023-05-03T07:15:11;102704.47;;;10.49;77.69
65760;BME280;52496;51.082;5.066;2023-05-03T07:17:42;102710.69;;;10.60;75.10
65760;BME280;52496;51.082;5.066;2023-05-03T07:20:12;102701.94;;;10.67;75.17
65760;BME280;52496;51.082;5.066;2023-05-03T07:22:43;102699.31;;;10.87;75.08
65760;BME280;52496;51.082;5.066;2023-05-03T07:25:14;102708.16;;;11.07;73.57
65760;BME280;52496;51.082;5.066;2023-05-03T07:27:46;102709.00;;;11.17;70.45
65760;BME280;52496;51.082;5.066;2023-05-03T07:30:17;102699.69;;;11.21;70.30
65760;BME280;52496;51.082;5.066;2023-05-03T07:32:48;102697.53;;;11.34;71.21
65760;BME280;52496;51.082;5.066;2023-05-03T07:35:19;102692.44;;;11.51;69.63
65760;BME280;52496;51.082;5.066;2023-05-03T07:37:50;102689.44;;;11.63;66.87
65760;BME280;52496;51.082;5.066;2023-05-03T07:40:20;102683.34;;;11.71;68.08
65760;BME280;52496;51.082;5.066;2023-05-03T07:42:51;102684.59;;;11.77;67.29
65760;BME280;52496;51.082;5.066;2023-05-03T07:45:21;102678.22;;;11.87;67.37
65760;BME280;52496;51.082;5.066;2023-05-03T07:47:53;102672.06;;;12.05;67.42
65760;BME280;52496;51.082;5.066;2023-05-03T07:50:23;102671.72;;;12.18;64.99
65760;BME280;52496;51.082;5.066;2023-05-03T07:52:54;102669.34;;;12.32;64.82
65760;BME280;52496;51.082;5.066;2023-05-03T07:55:25;102672.31;;;12.57;65.32
65760;BME280;52496;51.082;5.066;2023-05-03T07:57:57;102676.19;;;12.80;65.18
65760;BME280;52496;51.082;5.066;2023-05-03T08:00:29;102666.81;;;13.02;65.10
65760;BME280;52496;51.082;5.066;2023-05-03T08:03:00;102670.84;;;13.24;60.93
65760;BME280;52496;51.082;5.066;2023-05-03T08:05:33;102671.16;;;13.21;60.56
65760;BME280;52496;51.082;5.066;2023-05-03T08:08:05;102668.25;;;13.32;61.42
65760;BME280;52496;51.082;5.066;2023-05-03T08:10:36;102667.28;;;13.42;60.91
65760;BME280;52496;51.082;5.066;2023-05-03T08:13:07;102673.09;;;13.55;58.48
65760;BME280;52496;51.082;5.066;2023-05-03T08:15:37;102667.72;;;13.55;57.13
65760;BME280;52496;51.082;5.066;2023-05-03T08:18:09;102676.13;;;13.60;57.51
65760;BME280;52496;51.082;5.066;2023-05-03T08:20:39;102667.91;;;13.62;58.11
65760;BME280;52496;51.082;5.066;2023-05-03T08:23:11;102665.75;;;13.65;56.66
65760;BME280;52496;51.082;5.066;2023-05-03T08:25:42;102663.47;;;13.79;57.50
65760;BME280;52496;51.082;5.066;2023-05-03T08:28:15;102665.16;;;13.80;57.66
65760;BME280;52496;51.082;5.066;2023-05-03T08:30:45;102661.91;;;14.10;56.38
65760;BME280;52496;51.082;5.066;2023-05-03T08:33:16;102655.06;;;14.32;55.89
65760;BME280;52496;51.082;5.066;2023-05-03T08:35:46;102657.31;;;14.53;54.50
65760;BME280;52496;51.082;5.066;2023-05-03T08:38:17;102648.09;;;14.64;55.95
65760;BME280;52496;51.082;5.066;2023-05-03T08:40:50;102648.25;;;14.87;52.64
65760;BME280;52496;51.082;5.066;2023-05-03T08:43:22;102640.19;;;14.95;54.45
65760;BME280;52496;51.082;5.066;2023-05-03T08:45:56;102643.88;;;15.10;53.14
65760;BME280;52496;51.082;5.066;2023-05-03T08:48:27;102643.53;;;15.05;51.88
65760;BME280;52496;51.082;5.066;2023-05-03T08:50:59;102657.34;;;15.19;51.68
65760;BME280;52496;51.082;5.066;2023-05-03T08:53:33;102670.59;;;15.36;51.57
65760;BME280;52496;51.082;5.066;2023-05-03T08:56:06;102667.59;;;15.31;51.00
65760;BME280;52496;51.082;5.066;2023-05-03T08:58:37;102669.44;;;15.31;49.84
65760;BME280;52496;51.082;5.066;2023-05-03T09:01:08;102655.09;;;15.30;49.83
65760;BME280;52496;51.082;5.066;2023-05-03T09:03:39;102663.88;;;15.32;50.27
65760;BME280;52496;51.082;5.066;2023-05-03T09:06:19;102651.91;;;15.43;49.38
65760;BME280;52496;51.082;5.066;2023-05-03T09:08:51;102660.59;;;15.62;49.92
65760;BME280;52496;51.082;5.066;2023-05-03T09:11:27;102664.44;;;15.75;48.55
65760;BME280;52496;51.082;5.066;2023-05-03T09:14:16;102656.22;;;15.69;47.96
65760;BME280;52496;51.082;5.066;2023-05-03T09:16:47;102656.84;;;15.79;48.84
65760;BME280;52496;51.082;5.066;2023-05-03T09:19:17;102657.78;;;15.94;48.69
65760;BME280;52496;51.082;5.066;2023-05-03T09:21:48;102657.72;;;16.11;48.36
65760;BME280;52496;51.082;5.066;2023-05-03T09:24:20;102662.63;;;16.38;47.97
65760;BME280;52496;51.082;5.066;2023-05-03T09:26:51;102661.25;;;16.42;46.44
65760;BME280;52496;51.082;5.066;2023-05-03T09:29:31;102651.25;;;16.20;46.79
65760;BME280;52496;51.082;5.066;2023-05-03T09:32:04;102646.81;;;16.27;48.58
65760;BME280;52496;51.082;5.066;2023-05-03T09:34:35;102644.91;;;16.36;46.67
65760;BME280;52496;51.082;5.066;2023-05-03T09:37:06;102641.09;;;16.53;47.32
65760;BME280;52496;51.082;5.066;2023-05-03T09:39:42;102650.38;;;16.73;46.79
65760;BME280;52496;51.082;5.066;2023-05-03T09:42:15;102645.78;;;16.82;47.44
65760;BME280;52496;51.082;5.066;2023-05-03T09:44:48;102661.13;;;17.05;46.00
65760;BME280;52496;51.082;5.066;2023-05-03T09:47:20;102644.66;;;17.14;45.58
65760;BME280;52496;51.082;5.066;2023-05-03T09:49:51;102640.25;;;17.28;45.96
65760;BME280;52496;51.082;5.066;2023-05-03T09:52:22;102646.03;;;17.25;44.31
65760;BME280;52496;51.082;5.066;2023-05-03T09:54:52;102647.38;;;17.29;43.05
65760;BME280;52496;51.082;5.066;2023-05-03T09:57:24;102643.72;;;17.22;43.55
65760;BME280;52496;51.082;5.066;2023-05-03T09:59:55;102633.09;;;17.20;43.50
65760;BME280;52496;51.082;5.066;2023-05-03T10:02:26;102641.31;;;17.42;45.16
65760;BME280;52496;51.082;5.066;2023-05-03T10:04:57;102634.03;;;17.57;45.13
65760;BME280;52496;51.082;5.066;2023-05-03T10:07:30;102640.81;;;17.98;44.11
65760;BME280;52496;51.082;5.066;2023-05-03T10:10:01;102628.09;;;18.13;42.55
65760;BME280;52496;51.082;5.066;2023-05-03T10:12:34;102625.75;;;18.10;41.73
65760;BME280;52496;51.082;5.066;2023-05-03T10:15:07;102635.81;;;18.16;41.46
65760;BME280;52496;51.082;5.066;2023-05-03T10:17:39;102631.88;;;17.97;42.39
65760;BME280;52496;51.082;5.066;2023-05-03T10:20:26;102629.25;;;17.89;42.32
65760;BME280;52496;51.082;5.066;2023-05-03T10:23:16;102629.09;;;17.91;41.61
65760;BME280;52496;51.082;5.066;2023-05-03T10:28:42;102621.00;;;18.12;43.31
65760;BME280;52496;51.082;5.066;2023-05-03T10:31:45;102613.91;;;18.11;42.31
65760;BME280;52496;51.082;5.066;2023-05-03T10:34:21;102618.31;;;18.33;42.58
65760;BME280;52496;51.082;5.066;2023-05-03T10:36:52;102609.78;;;18.58;41.99
65760;BME280;52496;51.082;5.066;2023-05-03T10:39:26;102611.69;;;18.79;42.60
65760;BME280;52496;51.082;5.066;2023-05-03T10:42:05;102603.84;;;18.91;39.69
65760;BME280;52496;51.082;5.066;2023-05-03T10:44:50;102611.69;;;18.79;40.61
65760;BME280;52496;51.082;5.066;2023-05-03T10:47:22;102612.13;;;18.83;40.14
65760;BME280;52496;51.082;5.066;2023-05-03T10:52:46;102614.44;;;18.86;38.92
65760;BME280;52496;51.082;5.066;2023-05-03T10:55:19;102615.63;;;18.76;40.16
65760;BME280;52496;51.082;5.066;2023-05-03T10:57:53;102599.34;;;18.76;40.13
65760;BME280;52496;51.082;5.066;2023-05-03T11:00:38;102609.53;;;18.74;39.92
65760;BME280;52496;51.082;5.066;2023-05-03T11:05:52;102595.72;;;18.69;39.19
65760;BME280;52496;51.082;5.066;2023-05-03T11:08:24;102598.31;;;18.77;39.70
65760;BME280;52496;51.082;5.066;2023-05-03T11:10:59;102598.97;;;18.79;39.57
65760;BME280;52496;51.082;5.066;2023-05-03T11:13:30;102588.47;;;18.98;40.76
65760;BME280;52496;51.082;5.066;2023-05-03T11:16:03;102595.47;;;18.86;39.17
65760;BME280;52496;51.082;5.066;2023-05-03T11:18:35;102588.06;;;18.73;40.14
65760;BME280;52496;51.082;5.066;2023-05-03T11:21:05;102582.56;;;18.66;38.35
65760;BME280;52496;51.082;5.066;2023-05-03T11:23:38;102578.94;;;18.80;39.84
65760;BME280;52496;51.082;5.066;2023-05-03T11:26:08;102571.03;;;19.14;39.64
65760;BME280;52496;51.082;5.066;2023-05-03T11:28:41;102581.72;;;19.22;39.28
65760;BME280;52496;51.082;5.066;2023-05-03T11:31:12;102568.31;;;19.48;40.76
65760;BME280;52496;51.082;5.066;2023-05-03T11:33:42;102575.03;;;19.59;39.39
65760;BME280;52496;51.082;5.066;2023-05-03T11:36:13;102573.91;;;19.82;39.14
65760;BME280;52496;51.082;5.066;2023-05-03T11:38:44;102576.47;;;20.03;37.08
65760;BME280;52496;51.082;5.066;2023-05-03T11:41:16;102572.69;;;20.04;37.06
65760;BME280;52496;51.082;5.066;2023-05-03T11:43:48;102565.16;;;19.93;37.02
65760;BME280;52496;51.082;5.066;2023-05-03T11:46:21;102564.72;;;19.83;37.60
65760;BME280;52496;51.082;5.066;2023-05-03T11:48:54;102562.03;;;19.96;37.42
65760;BME280;52496;51.082;5.066;2023-05-03T11:51:25;102551.81;;;19.98;37.53
65760;BME280;52496;51.082;5.066;2023-05-03T11:53:59;102553.50;;;20.19;37.42
65760;BME280;52496;51.082;5.066;2023-05-03T11:56:30;102558.75;;;20.27;37.25
65760;BME280;52496;51.082;5.066;2023-05-03T11:59:00;102553.09;;;20.22;36.54
65760;BME280;52496;51.082;5.066;2023-05-03T12:01:31;102553.53;;;20.39;37.42
65760;BME280;52496;51.082;5.066;2023-05-03T12:04:03;102547.31;;;20.52;37.41
65760;BME280;52496;51.082;5.066;2023-05-03T12:06:35;102550.00;;;20.65;36.07
65760;BME280;52496;51.082;5.066;2023-05-03T12:09:12;102534.28;;;20.47;35.67
65760;BME280;52496;51.082;5.066;2023-05-03T12:11:44;102532.47;;;20.54;37.83
65760;BME280;52496;51.082;5.066;2023-05-03T12:14:15;102527.63;;;20.63;36.36
65760;BME280;52496;51.082;5.066;2023-05-03T12:16:48;102518.56;;;20.96;36.77
65760;BME280;52496;51.082;5.066;2023-05-03T12:19:27;102512.84;;;21.30;35.67
65760;BME280;52496;51.082;5.066;2023-05-03T12:21:57;102514.06;;;21.41;35.45
65760;BME280;52496;51.082;5.066;2023-05-03T12:24:28;102508.50;;;21.68;34.78
65760;BME280;52496;51.082;5.066;2023-05-03T12:26:58;102517.53;;;21.93;34.69
65760;BME280;52496;51.082;5.066;2023-05-03T12:29:35;102505.50;;;22.08;33.18
65760;BME280;52496;51.082;5.066;2023-05-03T12:32:06;102508.38;;;22.19;34.69
65760;BME280;52496;51.082;5.066;2023-05-03T12:34:36;102495.19;;;22.16;34.30
65760;BME280;52496;51.082;5.066;2023-05-03T12:37:07;102487.91;;;22.35;32.58
65760;BME280;52496;51.082;5.066;2023-05-03T12:39:38;102498.09;;;22.47;32.97
65760;BME280;52496;51.082;5.066;2023-05-03T12:42:09;102491.94;;;22.51;32.60
65760;BME280;52496;51.082;5.066;2023-05-03T12:44:40;102482.72;;;22.27;31.48
65760;BME280;52496;51.082;5.066;2023-05-03T12:47:11;102479.69;;;22.17;32.35
65760;BME280;52496;51.082;5.066;2023-05-03T12:49:42;102469.78;;;22.23;33.44
65760;BME280;52496;51.082;5.066;2023-05-03T12:52:12;102471.72;;;22.40;32.67
65760;BME280;52496;51.082;5.066;2023-05-03T12:54:43;102463.25;;;22.49;31.84
65760;BME280;52496;51.082;5.066;2023-05-03T12:57:15;102469.75;;;22.48;31.40
65760;BME280;52496;51.082;5.066;2023-05-03T12:59:46;102465.03;;;22.61;32.81
65760;BME280;52496;51.082;5.066;2023-05-03T13:02:22;102475.53;;;22.76;31.82
65760;BME280;52496;51.082;5.066;2023-05-03T13:04:54;102458.38;;;22.94;31.06
65760;BME280;52496;51.082;5.066;2023-05-03T13:07:25;102454.38;;;22.97;30.81
65760;BME280;52496;51.082;5.066;2023-05-03T13:09:57;102450.53;;;22.79;32.86
65760;BME280;52496;51.082;5.066;2023-05-03T13:12:28;102447.44;;;22.76;30.87
65760;BME280;52496;51.082;5.066;2023-05-03T13:15:02;102450.41;;;22.93;31.13
65760;BME280;52496;51.082;5.066;2023-05-03T13:17:32;102428.28;;;23.19;32.49
65760;BME280;52496;51.082;5.066;2023-05-03T13:20:03;102425.34;;;23.32;32.05
65760;BME280;52496;51.082;5.066;2023-05-03T13:22:36;102419.63;;;23.22;30.35
65760;BME280;52496;51.082;5.066;2023-05-03T13:25:07;102434.34;;;22.84;30.40
65760;BME280;52496;51.082;5.066;2023-05-03T13:27:37;102414.34;;;22.72;31.67
65760;BME280;52496;51.082;5.066;2023-05-03T13:30:08;102414.78;;;22.87;31.79
65760;BME280;52496;51.082;5.066;2023-05-03T13:32:39;102412.81;;;23.13;30.96